| time (UTC) | temp F | wind direction | speed MPH | gust MPH | rain 1hr in | rain 24hr in | rain mn in | humidity % | barometer mb |
| 20260905022630 | 75 | 111 | 0.0 | 2.0 | 0.00 | 0.00 | 0.00 | 29 | 1009.6 |
| 20260905021625 | 76 | 111 | 1.0 | 4.0 | 0.00 | 0.00 | 0.00 | 28 | 1009.5 |
| 20260905020616 | 76 | 111 | 4.0 | 7.0 | 0.00 | 0.00 | 0.00 | 27 | 1009.5 |
| 20260905015639 | 77 | 72 | 3.0 | 5.0 | 0.00 | 0.00 | 0.00 | 28 | 1009.7 |
| 20260905014628 | 78 | 109 | 3.0 | 4.0 | 0.00 | 0.00 | 0.00 | 28 | 1009.7 |
| 20260905013623 | 80 | 142 | 4.0 | 4.0 | 0.00 | 0.00 | 0.00 | 26 | 1009.7 |
| 20260905012614 | 83 | 165 | 2.0 | 4.0 | 0.00 | 0.00 | 0.00 | 24 | 1009.8 |
| 20260905011625 | 84 | 165 | 1.0 | 2.0 | 0.00 | 0.00 | 0.00 | 21 | 1009.8 |
| 20260905010617 | 84 | 165 | 1.0 | 2.0 | 0.00 | 0.00 | 0.00 | 20 | 1010.0 |
| 20260905005622 | 84 | 165 | 2.0 | 5.0 | 0.00 | 0.00 | 0.00 | 20 | 1010.0 |
| 20260905004613 | 84 | 165 | 3.0 | 6.0 | 0.00 | 0.00 | 0.00 | 20 | 1010.0 |
| 20260905003645 | 84 | 164 | 4.0 | 6.0 | 0.00 | 0.00 | 0.00 | 20 | 1010.1 |
| 20260905002652 | 84 | 188 | 3.0 | 6.0 | 0.00 | 0.00 | 0.00 | 20 | 1010.1 |
| 20260905001623 | 85 | 195 | 3.0 | 6.0 | 0.00 | 0.00 | 0.00 | 19 | 1010.1 |
| 20260905000629 | 85 | 242 | 2.0 | 7.0 | 0.00 | 0.00 | 0.00 | 19 | 1010.2 |
| 20260904235626 | 85 | 229 | 3.0 | 9.0 | 0.00 | 0.00 | 0.00 | 20 | 1010.2 |
| 20260904234615 | 84 | 217 | 6.0 | 13.0 | 0.00 | 0.00 | 0.00 | 20 | 1010.2 |
| 20260904233628 | 85 | 224 | 5.0 | 12.0 | 0.00 | 0.00 | 0.00 | 20 | 1010.2 |
| 20260904232617 | 85 | 195 | 6.0 | 11.0 | 0.00 | 0.00 | 0.00 | 19 | 1010.2 |
| 20260904231627 | 85 | 189 | 9.0 | 12.0 | 0.00 | 0.00 | 0.00 | 19 | 1010.3 |
| 20260904230616 | 85 | 237 | 6.0 | 12.0 | 0.00 | 0.00 | 0.00 | 20 | 1010.3 |
| 20260904225618 | 84 | 200 | 9.0 | 13.0 | 0.00 | 0.00 | 0.00 | 19 | 1010.3 |
| 20260904224646 | 84 | 218 | 8.0 | 16.0 | 0.00 | 0.00 | 0.00 | 20 | 1010.3 |
| 20260904223613 | 85 | 223 | 8.0 | 14.0 | 0.00 | 0.00 | 0.00 | 19 | 1010.5 |
| 20260904222623 | 84 | 252 | 10.0 | 15.0 | 0.00 | 0.00 | 0.00 | 20 | 1010.5 |
| 20260904221651 | 84 | 252 | 10.0 | 16.0 | 0.00 | 0.00 | 0.00 | 20 | 1010.5 |
| 20260904220626 | 84 | 234 | 8.0 | 15.0 | 0.00 | 0.00 | 0.00 | 20 | 1010.6 |
| 20260904215623 | 84 | 202 | 8.0 | 14.0 | 0.00 | 0.00 | 0.00 | 20 | 1010.6 |
| 20260904214632 | 84 | 231 | 9.0 | 17.0 | 0.00 | 0.00 | 0.00 | 21 | 1010.7 |
| 20260904213641 | 84 | 202 | 7.0 | 20.0 | 0.00 | 0.00 | 0.00 | 21 | 1010.7 |
| 20260904212613 | 84 | 236 | 9.0 | 15.0 | 0.00 | 0.00 | 0.00 | 21 | 1010.8 |
| 20260904211623 | 83 | 245 | 8.0 | 13.0 | 0.00 | 0.00 | 0.00 | 21 | 1010.9 |
| 20260904210612 | 83 | 229 | 11.0 | 19.0 | 0.00 | 0.00 | 0.00 | 21 | 1011.0 |
| 20260904205633 | 83 | 229 | 6.0 | 12.0 | 0.00 | 0.00 | 0.00 | 20 | 1010.9 |
| 20260904204642 | 83 | 221 | 8.0 | 15.0 | 0.00 | 0.00 | 0.00 | 20 | 1011.0 |
| 20260904203637 | 83 | 215 | 7.0 | 16.0 | 0.00 | 0.00 | 0.00 | 20 | 1011.0 |
| 20260904202626 | 83 | 217 | 9.0 | 14.0 | 0.00 | 0.00 | 0.00 | 19 | 1011.1 |
| 20260904201616 | 82 | 209 | 8.0 | 13.0 | 0.00 | 0.00 | 0.00 | 20 | 1011.1 |
| 20260904200624 | 82 | 260 | 9.0 | 15.0 | 0.00 | 0.00 | 0.00 | 20 | 1011.3 |
| 20260904195649 | 82 | 257 | 6.0 | 16.0 | 0.00 | 0.00 | 0.00 | 19 | 1011.3 |
| 20260904194616 | 81 | 204 | 10.0 | 18.0 | 0.00 | 0.00 | 0.00 | 20 | 1011.4 |
| 20260904193647 | 82 | 223 | 7.0 | 14.0 | 0.00 | 0.00 | 0.00 | 22 | 1011.4 |
| 20260904192635 | 81 | 221 | 7.0 | 15.0 | 0.00 | 0.00 | 0.00 | 21 | 1011.6 |
| 20260904191627 | 81 | 228 | 7.0 | 18.0 | 0.00 | 0.00 | 0.00 | 20 | 1011.6 |
| 20260904190616 | 80 | 236 | 8.0 | 20.0 | 0.00 | 0.00 | 0.00 | 21 | 1011.7 |
| 20260904185616 | 80 | 187 | 9.0 | 20.0 | 0.00 | 0.00 | 0.00 | 20 | 1011.8 |
| 20260904184625 | 80 | 228 | 9.0 | 18.0 | 0.00 | 0.00 | 0.00 | 22 | 1012.0 |
| 20260904183619 | 80 | 247 | 11.0 | 16.0 | 0.00 | 0.00 | 0.00 | 21 | 1012.1 |
| 20260904182629 | 79 | 290 | 10.0 | 18.0 | 0.00 | 0.00 | 0.00 | 22 | 1012.1 |
| 20260904181619 | 80 | 234 | 10.0 | 18.0 | 0.00 | 0.00 | 0.00 | 20 | 1012.2 |
| 20260904180615 | 80 | 228 | 10.0 | 18.0 | 0.00 | 0.00 | 0.00 | 20 | 1012.2 |
| 20260904175616 | 79 | 252 | 12.0 | 18.0 | 0.00 | 0.00 | 0.00 | 20 | 1012.4 |
| 20260904174631 | 79 | 216 | 8.0 | 18.0 | 0.00 | 0.00 | 0.00 | 21 | 1012.4 |
| 20260904173622 | 79 | 253 | 11.0 | 20.0 | 0.00 | 0.00 | 0.00 | 19 | 1012.4 |
| 20260904172613 | 79 | 215 | 12.0 | 19.0 | 0.00 | 0.00 | 0.00 | 19 | 1012.4 |
| 20260904171625 | 79 | 229 | 8.0 | 16.0 | 0.00 | 0.00 | 0.00 | 21 | 1012.3 |
| 20260904170635 | 78 | 207 | 11.0 | 19.0 | 0.00 | 0.00 | 0.00 | 20 | 1012.3 |
| 20260904165613 | 78 | 207 | 10.0 | 20.0 | 0.00 | 0.00 | 0.00 | 20 | 1012.2 |
| 20260904164623 | 78 | 220 | 8.0 | 14.0 | 0.00 | 0.00 | 0.00 | 21 | 1012.1 |
| 20260904163612 | 77 | 222 | 7.0 | 13.0 | 0.00 | 0.00 | 0.00 | 23 | 1012.2 |
| 20260904162625 | 76 | 205 | 7.0 | 14.0 | 0.00 | 0.00 | 0.00 | 26 | 1012.1 |
| 20260904161636 | 74 | 218 | 2.0 | 5.0 | 0.00 | 0.00 | 0.00 | 27 | 1012.1 |
| 20260904160624 | 74 | 186 | 1.0 | 4.0 | 0.00 | 0.00 | 0.00 | 26 | 1012.2 |
| 20260904155626 | 74 | 182 | 2.0 | 4.0 | 0.00 | 0.00 | 0.00 | 26 | 1012.1 |
| 20260904154640 | 73 | 199 | 2.0 | 3.0 | 0.00 | 0.00 | 0.00 | 26 | 1012.0 |
| 20260904153626 | 72 | 257 | 1.0 | 2.0 | 0.00 | 0.00 | 0.00 | 27 | 1012.0 |
| 20260904152617 | 71 | 254 | 2.0 | 4.0 | 0.00 | 0.00 | 0.00 | 26 | 1012.0 |
| 20260904151647 | 70 | 28 | 1.0 | 2.0 | 0.00 | 0.00 | 0.00 | 28 | 1012.0 |
| 20260904150618 | 70 | 61 | 2.0 | 4.0 | 0.00 | 0.00 | 0.00 | 28 | 1011.9 |
| 20260904145617 | 68 | 64 | 2.0 | 3.0 | 0.00 | 0.00 | 0.00 | 28 | 1011.9 |
| 20260904144627 | 67 | 64 | 0.0 | 2.0 | 0.00 | 0.00 | 0.00 | 29 | 1011.8 |
| 20260904143618 | 64 | 64 | 1.0 | 3.0 | 0.00 | 0.00 | 0.00 | 36 | 1011.7 |
| 20260904142613 | 61 | 64 | 1.0 | 3.0 | 0.00 | 0.00 | 0.00 | 43 | 1011.6 |
| 20260904141622 | 59 | 64 | 2.0 | 3.0 | 0.00 | 0.00 | 0.00 | 44 | 1011.4 |
| 20260904140612 | 56 | 64 | 1.0 | 4.0 | 0.00 | 0.00 | 0.00 | 45 | 1011.2 |
| 20260904135631 | 55 | 63 | 0.0 | 3.0 | 0.00 | 0.00 | 0.00 | 45 | 1011.2 |
| 20260904134622 | 55 | 64 | 0.0 | 2.0 | 0.00 | 0.00 | 0.00 | 45 | 1011.0 |
| 20260904133617 | 54 | 64 | 1.0 | 4.0 | 0.00 | 0.00 | 0.00 | 46 | 1010.8 |
| 20260904132628 | 54 | 64 | 0.0 | 4.0 | 0.00 | 0.00 | 0.00 | 46 | 1010.8 |
| 20260904131620 | 53 | 63 | 1.0 | 5.0 | 0.00 | 0.00 | 0.00 | 45 | 1010.6 |
| 20260904130614 | 54 | 63 | 0.0 | 3.0 | 0.00 | 0.00 | 0.00 | 45 | 1010.5 |
| 20260904125636 | 54 | 63 | 3.0 | 4.0 | 0.00 | 0.00 | 0.00 | 45 | 1010.3 |
| 20260904124626 | 55 | 10 | 1.0 | 6.0 | 0.00 | 0.00 | 0.00 | 46 | 1010.1 |
| 20260904123617 | 55 | 290 | 1.0 | 7.0 | 0.00 | 0.00 | 0.00 | 46 | 1009.9 |
| 20260904122649 | 54 | 75 | 1.0 | 2.0 | 0.00 | 0.00 | 0.00 | 46 | 1009.7 |
| 20260904121623 | 53 | 75 | 0.0 | 4.0 | 0.00 | 0.00 | 0.00 | 49 | 1009.7 |
| 20260904120613 | 53 | 75 | 4.0 | 5.0 | 0.00 | 0.00 | 0.00 | 49 | 1009.6 |
| 20260904115634 | 55 | 340 | 3.0 | 5.0 | 0.00 | 0.00 | 0.00 | 49 | 1009.7 |
| 20260904114624 | 54 | 63 | 0.0 | 0.0 | 0.00 | 0.00 | 0.00 | 45 | 1009.5 |
| 20260904113619 | 53 | 63 | 0.0 | 4.0 | 0.00 | 0.00 | 0.00 | 49 | 1009.5 |
| 20260904112631 | 52 | 63 | 2.0 | 3.0 | 0.00 | 0.00 | 0.00 | 53 | 1009.6 |
| 20260904111622 | 52 | 63 | 1.0 | 4.0 | 0.00 | 0.00 | 0.00 | 54 | 1009.6 |
| 20260904110613 | 52 | 63 | 0.0 | 3.0 | 0.00 | 0.00 | 0.00 | 55 | 1009.5 |
| 20260904105619 | 52 | 63 | 3.0 | 4.0 | 0.00 | 0.00 | 0.00 | 54 | 1009.3 |
| 20260904104630 | 52 | 290 | 2.0 | 4.0 | 0.00 | 0.00 | 0.00 | 55 | 1009.2 |
| 20260904103621 | 51 | 155 | 0.0 | 2.0 | 0.00 | 0.00 | 0.00 | 55 | 1009.0 |
| 20260904102632 | 52 | 155 | 1.0 | 3.0 | 0.00 | 0.00 | 0.00 | 54 | 1008.9 |
| 20260904101627 | 52 | 155 | 1.0 | 2.0 | 0.00 | 0.00 | 0.00 | 54 | 1008.8 |
| 20260904100619 | 52 | 155 | 1.0 | 2.0 | 0.00 | 0.00 | 0.00 | 55 | 1008.6 |
| 20260904095619 | 52 | 155 | 2.0 | 3.0 | 0.00 | 0.00 | 0.00 | 55 | 1008.5 |
| 20260904094615 | 51 | 155 | 0.0 | 2.0 | 0.00 | 0.00 | 0.00 | 55 | 1008.5 |
| 20260904093647 | 51 | 155 | 0.0 | 5.0 | 0.00 | 0.00 | 0.00 | 55 | 1008.5 |
| 20260904092617 | 52 | 157 | 0.0 | 3.0 | 0.00 | 0.00 | 0.00 | 53 | 1008.4 |
| 20260904091650 | 53 | 157 | 3.0 | 5.0 | 0.00 | 0.00 | 0.00 | 52 | 1008.3 |
| 20260904090621 | 53 | 164 | 1.0 | 3.0 | 0.00 | 0.00 | 0.00 | 53 | 1008.2 |
| 20260904085626 | 53 | 164 | 0.0 | 3.0 | 0.00 | 0.00 | 0.00 | 53 | 1008.2 |
| 20260904084617 | 54 | 164 | 0.0 | 3.0 | 0.00 | 0.00 | 0.00 | 52 | 1008.1 |
| 20260904083629 | 54 | 164 | 0.0 | 3.0 | 0.00 | 0.00 | 0.00 | 52 | 1008.1 |
| 20260904082624 | 54 | 163 | 0.0 | 2.0 | 0.00 | 0.00 | 0.00 | 52 | 1008.0 |
| 20260904081616 | 54 | 163 | 1.0 | 2.0 | 0.00 | 0.00 | 0.00 | 51 | 1007.9 |
| 20260904080627 | 54 | 163 | 1.0 | 4.0 | 0.00 | 0.00 | 0.00 | 50 | 1008.0 |
| 20260904075629 | 54 | 163 | 1.0 | 3.0 | 0.00 | 0.00 | 0.00 | 51 | 1008.1 |
| 20260904074623 | 55 | 168 | 0.0 | 3.0 | 0.00 | 0.00 | 0.00 | 49 | 1008.2 |
| 20260904073613 | 55 | 168 | 0.0 | 2.0 | 0.00 | 0.00 | 0.00 | 49 | 1008.2 |
| 20260904072624 | 56 | 168 | 1.0 | 2.0 | 0.00 | 0.00 | 0.00 | 47 | 1008.1 |
| 20260904071615 | 56 | 168 | 0.0 | 3.0 | 0.00 | 0.00 | 0.00 | 48 | 1008.1 |
| 20260904070631 | 56 | 168 | 1.0 | 4.0 | 0.00 | 0.00 | 0.00 | 48 | 1008.1 |
| 20260904065612 | 57 | 168 | 0.0 | 0.0 | 0.00 | 0.00 | 0.00 | 47 | 1008.2 |
| 20260904064623 | 57 | 168 | 0.0 | 0.0 | 0.00 | 0.00 | 0.00 | 46 | 1008.1 |
| 20260904063618 | 57 | 168 | 0.0 | 0.0 | 0.00 | 0.00 | 0.00 | 46 | 1008.1 |
| 20260904062629 | 58 | 168 | 0.0 | 0.0 | 0.00 | 0.00 | 0.00 | 44 | 1008.1 |
| 20260904061622 | 58 | 168 | 1.0 | 2.0 | 0.00 | 0.00 | 0.00 | 45 | 1008.1 |
| 20260904060617 | 58 | 168 | 0.0 | 3.0 | 0.00 | 0.00 | 0.00 | 44 | 1007.9 |
| 20260904055619 | 59 | 168 | 2.0 | 4.0 | 0.00 | 0.00 | 0.00 | 44 | 1008.0 |
| 20260904054631 | 59 | 169 | 1.0 | 4.0 | 0.00 | 0.00 | 0.00 | 42 | 1008.0 |
| 20260904053620 | 60 | 169 | 2.0 | 3.0 | 0.00 | 0.00 | 0.00 | 43 | 1008.1 |
| 20260904052631 | 60 | 170 | 1.0 | 2.0 | 0.00 | 0.00 | 0.00 | 43 | 1008.1 |
| 20260904051621 | 59 | 170 | 0.0 | 2.0 | 0.00 | 0.00 | 0.00 | 43 | 1008.1 |
| 20260904050614 | 59 | 170 | 1.0 | 3.0 | 0.00 | 0.00 | 0.00 | 44 | 1008.1 |
| 20260904045614 | 58 | 170 | 0.0 | 2.0 | 0.00 | 0.00 | 0.00 | 46 | 1008.2 |
| 20260904044625 | 58 | 170 | 1.0 | 2.0 | 0.00 | 0.00 | 0.00 | 47 | 1008.2 |
| 20260904043619 | 59 | 170 | 2.0 | 5.0 | 0.00 | 0.00 | 0.00 | 47 | 1008.3 |
| 20260904042650 | 61 | 236 | 3.0 | 9.0 | 0.00 | 0.00 | 0.00 | 44 | 1008.4 |
| 20260904041618 | 66 | 263 | 5.0 | 8.0 | 0.00 | 0.00 | 0.00 | 36 | 1008.4 |
| 20260904040628 | 68 | 114 | 3.0 | 8.0 | 0.00 | 0.00 | 0.00 | 26 | 1008.0 |
| 20260904035612 | 67 | 65 | 4.0 | 5.0 | 0.00 | 0.00 | 0.00 | 28 | 1008.1 |
| 20260904034623 | 67 | 13 | 1.0 | 4.0 | 0.00 | 0.00 | 0.00 | 29 | 1008.2 |
| 20260904033632 | 68 | 13 | 2.0 | 8.0 | 0.00 | 0.00 | 0.00 | 28 | 1008.3 |
| 20260904032621 | 69 | 63 | 3.0 | 8.0 | 0.00 | 0.00 | 0.00 | 27 | 1008.3 |
| 20260904031615 | 69 | 68 | 5.0 | 9.0 | 0.00 | 0.00 | 0.00 | 27 | 1008.3 |
| 20260904030625 | 69 | 74 | 6.0 | 9.0 | 0.00 | 0.00 | 0.00 | 26 | 1008.4 |
| 20260904025625 | 70 | 67 | 5.0 | 8.0 | 0.00 | 0.00 | 0.00 | 26 | 1008.4 |
| 20260904024616 | 71 | 82 | 5.0 | 8.0 | 0.00 | 0.00 | 0.00 | 25 | 1008.4 |
| 20260904023629 | 70 | 96 | 6.0 | 9.0 | 0.00 | 0.00 | 0.00 | 25 | 1008.4 |